createdAt,value
2018-09-14T00:01:56.542Z,82.34
2018-09-14T00:04:27.517Z,82.48
2018-09-14T00:07:05.236Z,82.40
2018-09-14T00:09:36.404Z,81.94
2018-09-14T00:12:07.689Z,81.73
2018-09-14T00:14:38.570Z,81.57
2018-09-14T00:17:09.579Z,82.02
2018-09-14T00:19:40.516Z,82.13
2018-09-14T00:22:11.516Z,82.65
2018-09-14T00:24:43.212Z,81.41
2018-09-14T00:27:14.399Z,81.74
2018-09-14T00:29:45.512Z,82.33
2018-09-14T00:32:16.524Z,81.83
2018-09-14T00:34:47.506Z,82.15
2018-09-14T00:37:18.503Z,82.14
2018-09-14T00:39:49.490Z,82.22
2018-09-14T00:42:20.531Z,82.62
2018-09-14T00:44:51.806Z,82.10
2018-09-14T00:47:22.625Z,82.42
2018-09-14T00:49:53.512Z,81.79
2018-09-14T00:52:24.526Z,81.40
2018-09-14T00:54:55.496Z,82.95
2018-09-14T00:57:26.513Z,82.70
2018-09-14T00:59:57.521Z,81.69
2018-09-14T01:02:28.480Z,80.93
2018-09-14T01:04:59.506Z,81.82
2018-09-14T01:07:30.504Z,81.49
2018-09-14T01:10:01.510Z,82.09
2018-09-14T01:12:32.522Z,81.36
2018-09-14T01:15:03.540Z,81.29
2018-09-14T01:17:34.519Z,81.17
2018-09-14T01:20:05.705Z,80.91
2018-09-14T01:22:36.561Z,81.48
2018-09-14T01:25:07.513Z,81.46
2018-09-14T01:27:38.522Z,81.33
2018-09-14T01:30:09.521Z,81.53
2018-09-14T01:32:40.506Z,80.86
2018-09-14T01:35:16.681Z,80.35
2018-09-14T01:37:47.587Z,80.26
2018-09-14T01:40:18.537Z,80.33
2018-09-14T01:42:49.513Z,80.28
2018-09-14T01:45:20.490Z,81.21
2018-09-14T01:47:51.514Z,80.87
2018-09-14T01:50:22.493Z,80.32
2018-09-14T01:52:53.521Z,79.83
2018-09-14T01:55:24.494Z,79.67
2018-09-14T01:57:55.525Z,79.90
2018-09-14T02:00:26.485Z,79.69
2018-09-14T02:02:57.508Z,79.28
2018-09-14T02:05:28.490Z,79.75
2018-09-14T02:07:59.546Z,79.33
2018-09-14T02:10:30.500Z,79.69
2018-09-14T02:13:01.526Z,78.83
2018-09-14T02:15:32.484Z,79.53
2018-09-14T02:18:03.523Z,78.96
2018-09-14T02:20:34.518Z,78.81
2018-09-14T02:23:05.503Z,78.89
2018-09-14T02:25:36.546Z,79.36
2018-09-14T02:28:07.788Z,78.96
2018-09-14T02:30:38.637Z,79.05
2018-09-14T02:33:09.561Z,79.63
2018-09-14T02:35:40.501Z,79.67
2018-09-14T02:38:11.501Z,79.19
2018-09-14T02:40:42.489Z,79.16
2018-09-14T02:43:13.516Z,78.93
2018-09-14T02:45:44.504Z,79.39
2018-09-14T02:48:15.562Z,79.49
2018-09-14T02:50:46.497Z,78.67
2018-09-14T02:53:17.528Z,79.00
2018-09-14T02:55:48.501Z,78.85
2018-09-14T02:58:19.508Z,78.36
2018-09-14T03:00:51.192Z,78.81
2018-09-14T03:03:22.573Z,79.29
2018-09-14T03:05:53.506Z,79.47
2018-09-14T03:08:24.497Z,78.79
2018-09-14T03:10:55.486Z,79.37
2018-09-14T03:13:26.514Z,78.54
2018-09-14T03:15:57.522Z,78.71
2018-09-14T03:18:28.529Z,78.48
2018-09-14T03:20:59.494Z,78.87
2018-09-14T03:23:30.538Z,78.95
2018-09-14T03:26:01.497Z,79.08
2018-09-14T03:28:32.517Z,78.58
2018-09-14T03:31:03.514Z,79.28
2018-09-14T03:33:34.533Z,78.72
2018-09-14T03:36:05.523Z,79.29
2018-09-14T03:38:36.521Z,78.71
2018-09-14T03:41:07.519Z,78.66
2018-09-14T03:43:38.511Z,79.04
2018-09-14T03:46:09.510Z,78.74
2018-09-14T03:48:40.522Z,78.74
2018-09-14T03:51:11.490Z,78.99
2018-09-14T03:53:42.509Z,78.33
2018-09-14T03:56:13.491Z,78.45
2018-09-14T03:58:44.496Z,78.80
2018-09-14T04:01:15.493Z,79.15
2018-09-14T04:03:46.509Z,79.40
2018-09-14T04:06:17.524Z,79.02
2018-09-14T04:08:48.487Z,79.14
2018-09-14T04:11:19.477Z,78.56
2018-09-14T04:13:50.529Z,79.47
2018-09-14T04:16:21.498Z,78.55
2018-09-14T04:18:58.508Z,78.72
2018-09-14T04:21:30.281Z,78.31
2018-09-14T04:24:01.387Z,78.34
2018-09-14T04:26:32.462Z,78.07
2018-09-14T04:29:03.513Z,78.73
2018-09-14T04:31:34.500Z,77.82
2018-09-14T04:34:05.512Z,78.68
2018-09-14T04:36:36.513Z,77.38
2018-09-14T04:39:11.027Z,77.52
2018-09-14T04:41:42.294Z,77.77
2018-09-14T04:44:13.450Z,78.04
2018-09-14T04:46:44.508Z,77.88
2018-09-14T04:49:15.534Z,77.14
2018-09-14T04:51:46.480Z,77.77
2018-09-14T04:54:17.553Z,77.89
2018-09-14T04:56:48.482Z,77.39
2018-09-14T04:59:19.495Z,77.28
2018-09-14T05:01:50.515Z,77.90
2018-09-14T05:04:21.519Z,77.00
2018-09-14T05:06:52.522Z,77.51
2018-09-14T05:09:23.508Z,77.39
2018-09-14T05:11:54.493Z,76.77
2018-09-14T05:14:25.514Z,76.98
2018-09-14T05:16:56.620Z,76.97
2018-09-14T05:19:27.503Z,76.85
2018-09-14T05:21:58.504Z,76.56
2018-09-14T05:24:29.578Z,76.96
2018-09-14T05:27:00.554Z,76.97
2018-09-14T05:29:31.514Z,76.89
2018-09-14T05:32:02.518Z,77.25
2018-09-14T05:34:33.554Z,76.58
2018-09-14T05:37:04.534Z,76.38
2018-09-14T05:39:35.518Z,77.43
2018-09-14T05:42:06.561Z,77.35
2018-09-14T05:44:37.509Z,76.62
2018-09-14T05:47:09.024Z,77.29
2018-09-14T05:49:40.378Z,76.63
2018-09-14T05:52:11.529Z,79.33
2018-09-14T05:54:42.496Z,76.46
2018-09-14T05:57:13.480Z,76.14
2018-09-14T05:59:44.509Z,76.57
2018-09-14T06:02:15.490Z,75.92
2018-09-14T06:04:46.501Z,76.56
2018-09-14T06:07:17.498Z,76.10
2018-09-14T06:09:49.557Z,76.53
2018-09-14T06:12:20.676Z,75.87
2018-09-14T06:14:51.570Z,75.71
2018-09-14T06:17:22.573Z,76.01
2018-09-14T06:19:53.519Z,75.30
2018-09-14T06:22:24.599Z,76.00
2018-09-14T06:24:55.481Z,75.93
2018-09-14T06:27:26.507Z,75.11
2018-09-14T06:29:57.577Z,74.76
2018-09-14T06:32:28.877Z,75.39
2018-09-14T06:35:00.387Z,74.75
2018-09-14T06:37:31.583Z,75.36
2018-09-14T06:40:02.531Z,75.85
2018-09-14T06:42:33.492Z,74.50
2018-09-14T06:45:04.549Z,74.98
2018-09-14T06:47:35.482Z,74.52
2018-09-14T06:50:06.597Z,74.31
2018-09-14T06:52:37.510Z,74.38
2018-09-14T06:55:08.525Z,73.98
2018-09-14T06:57:39.510Z,74.39
2018-09-14T07:00:10.728Z,73.73
2018-09-14T07:02:41.571Z,73.92
2018-09-14T07:05:12.481Z,72.99
2018-09-14T07:07:43.483Z,73.31
2018-09-14T07:10:14.514Z,74.38
2018-09-14T07:12:45.476Z,72.83
2018-09-14T07:15:16.484Z,72.15
2018-09-14T07:17:47.469Z,72.76
2018-09-14T07:20:18.511Z,73.03
2018-09-14T07:22:49.500Z,72.18
2018-09-14T07:25:20.552Z,72.48
2018-09-14T07:27:51.568Z,71.86
2018-09-14T07:30:22.531Z,71.38
2018-09-14T07:32:53.510Z,72.38
2018-09-14T07:35:24.530Z,71.14
2018-09-14T07:37:55.499Z,71.06
2018-09-14T07:40:26.603Z,71.41
2018-09-14T07:42:57.619Z,71.08
2018-09-14T07:45:28.588Z,70.52
2018-09-14T07:47:59.652Z,71.70
2018-09-14T07:53:49.398Z,70.30
2018-09-14T07:56:20.549Z,70.78
2018-09-14T07:58:51.579Z,71.42
2018-09-14T08:01:22.632Z,71.86
2018-09-14T08:03:53.617Z,71.51
2018-09-14T08:06:24.599Z,71.75
2018-09-14T08:08:55.581Z,71.27
2018-09-14T08:11:26.605Z,69.95
2018-09-14T08:13:57.582Z,70.71
2018-09-14T08:16:28.586Z,69.01
2018-09-14T08:18:59.622Z,68.19
2018-09-14T08:21:30.652Z,68.22
2018-09-14T08:24:01.565Z,67.13
2018-09-14T08:26:32.520Z,67.97
2018-09-14T08:29:03.547Z,66.72
2018-09-14T08:31:34.563Z,65.76
2018-09-14T08:34:05.597Z,66.23
2018-09-14T08:36:36.664Z,66.26
2018-09-14T08:39:12.502Z,65.18
2018-09-14T08:41:43.547Z,65.90
2018-09-14T08:44:14.546Z,65.13
2018-09-14T08:46:45.641Z,64.34
2018-09-14T08:49:16.619Z,64.23
2018-09-14T08:51:47.608Z,63.82
2018-09-14T08:54:18.581Z,63.09
2018-09-14T08:56:49.554Z,64.01
2018-09-14T08:59:20.483Z,62.25
2018-09-14T09:01:51.554Z,63.42
2018-09-14T09:04:22.606Z,63.36
2018-09-14T09:06:53.588Z,62.98
2018-09-14T09:09:24.583Z,62.82
2018-09-14T09:11:55.567Z,63.49
2018-09-14T09:14:26.537Z,63.24
2018-09-14T09:16:57.589Z,62.58
2018-09-14T09:19:28.719Z,63.38
2018-09-14T09:21:59.653Z,61.45
2018-09-14T09:24:30.611Z,60.22
2018-09-14T09:27:02.042Z,60.91
2018-09-14T09:29:33.485Z,62.39
2018-09-14T09:32:04.522Z,60.12
2018-09-14T09:34:35.509Z,59.86
2018-09-14T09:37:06.509Z,59.89
2018-09-14T09:39:37.493Z,58.07
2018-09-14T09:42:08.546Z,59.72
2018-09-14T09:44:39.581Z,58.87
2018-09-14T09:47:10.635Z,57.86
2018-09-14T09:49:41.566Z,56.32
2018-09-14T09:52:13.409Z,56.63
2018-09-14T09:54:44.509Z,57.45
2018-09-14T09:57:15.545Z,59.24
2018-09-14T09:59:46.549Z,58.20
2018-09-14T10:02:22.764Z,56.49
2018-09-14T10:04:58.633Z,55.61
2018-09-14T10:07:29.561Z,55.39
2018-09-14T10:10:00.522Z,53.92
2018-09-14T10:12:31.577Z,53.78
2018-09-14T10:15:02.538Z,53.44
2018-09-14T10:17:33.558Z,51.72
2018-09-14T10:20:04.679Z,50.27
2018-09-14T10:22:35.585Z,51.82
2018-09-14T10:25:06.533Z,51.18
2018-09-14T10:27:37.543Z,50.79
2018-09-14T10:30:08.488Z,50.32
2018-09-14T10:32:39.501Z,49.28
2018-09-14T10:35:10.528Z,48.57
2018-09-14T10:37:41.693Z,47.60
2018-09-14T10:40:13.423Z,46.05
2018-09-14T10:42:45.331Z,47.31
2018-09-14T10:45:16.496Z,48.01
2018-09-14T10:47:52.475Z,48.35
2018-09-14T10:50:23.498Z,48.37
2018-09-14T10:52:54.567Z,47.45
2018-09-14T10:55:25.581Z,49.70
2018-09-14T10:57:56.586Z,48.38
2018-09-14T11:00:28.478Z,47.05
2018-09-14T11:02:59.518Z,45.70
2018-09-14T11:05:30.583Z,45.29
2018-09-14T11:08:02.318Z,44.29
2018-09-14T11:10:33.397Z,44.27
2018-09-14T11:13:05.494Z,43.86
2018-09-14T11:15:36.539Z,43.07
2018-09-14T11:18:07.679Z,42.51
2018-09-14T11:20:38.875Z,40.53
2018-09-14T11:23:10.285Z,43.66
2018-09-14T11:25:41.690Z,41.43
2018-09-14T11:28:17.564Z,39.59
2018-09-14T11:30:48.588Z,41.33
2018-09-14T11:33:19.662Z,42.02
2018-09-14T11:38:35.595Z,39.42
2018-09-14T11:43:49.570Z,39.47
2018-09-14T11:46:21.511Z,41.52
2018-09-14T11:48:52.699Z,41.86
2018-09-14T11:51:23.615Z,39.24
2018-09-14T11:53:54.588Z,39.03
2018-09-14T11:56:25.592Z,39.98
2018-09-14T11:58:57.694Z,42.40
2018-09-14T12:01:30.466Z,43.33
2018-09-14T12:04:02.294Z,40.72
2018-09-14T12:06:33.459Z,40.91
2018-09-14T12:09:07.580Z,41.72
2018-09-14T12:11:40.012Z,43.12
2018-09-14T12:14:12.556Z,41.82
2018-09-14T12:16:44.488Z,42.84
2018-09-14T12:19:16.723Z,42.51
2018-09-14T12:21:48.551Z,43.36
2018-09-14T12:24:20.339Z,42.73
2018-09-14T12:26:51.394Z,42.19
2018-09-14T12:29:22.574Z,42.02
2018-09-14T12:31:53.746Z,42.73
2018-09-14T12:34:24.642Z,42.77
2018-09-14T12:36:55.655Z,43.96
2018-09-14T12:39:26.627Z,43.46
2018-09-14T12:41:57.686Z,43.97
2018-09-14T12:44:28.694Z,43.66
2018-09-14T12:46:59.618Z,44.51
2018-09-14T12:49:30.766Z,44.08
2018-09-14T12:52:01.745Z,43.88
2018-09-14T12:54:32.734Z,44.37
2018-09-14T12:57:03.613Z,45.57
2018-09-14T12:59:35.292Z,43.78
2018-09-14T13:02:06.395Z,44.82
2018-09-14T13:04:37.665Z,46.33
2018-09-14T13:07:08.642Z,46.15
2018-09-14T13:09:39.546Z,46.38
2018-09-14T13:12:10.600Z,45.77
2018-09-14T13:14:41.875Z,45.21
2018-09-14T13:17:13.788Z,46.34
2018-09-14T13:19:44.738Z,45.70
2018-09-14T13:22:15.617Z,46.54
2018-09-14T13:24:47.260Z,46.27
2018-09-14T13:27:17.437Z,45.17
2018-09-14T13:29:48.508Z,44.83
2018-09-14T13:32:19.529Z,45.42
2018-09-14T13:34:50.625Z,45.84
2018-09-14T13:37:21.573Z,44.76
2018-09-14T13:39:52.549Z,42.69
2018-09-14T13:42:23.576Z,42.71
2018-09-14T13:44:54.538Z,43.42
2018-09-14T13:47:25.590Z,43.91
2018-09-14T13:49:56.721Z,42.43
2018-09-14T13:52:27.715Z,41.67
2018-09-14T13:54:58.683Z,40.60
2018-09-14T13:57:29.576Z,39.63
2018-09-14T14:00:00.575Z,39.89
2018-09-14T14:02:31.570Z,38.77
2018-09-14T14:05:03.494Z,37.86
2018-09-14T14:07:34.549Z,37.91
2018-09-14T14:10:05.799Z,37.79
2018-09-14T14:12:37.199Z,38.89
2018-09-14T14:15:08.450Z,40.42
2018-09-14T14:17:39.792Z,39.23
2018-09-14T14:20:10.689Z,40.27
2018-09-14T14:22:42.056Z,39.94
2018-09-14T14:25:13.481Z,39.78
2018-09-14T14:27:44.771Z,40.97
2018-09-14T14:30:16.032Z,40.32
2018-09-14T14:32:47.386Z,40.50
2018-09-14T14:35:19.048Z,40.06
2018-09-14T14:37:50.510Z,40.68
2018-09-14T14:40:21.602Z,41.08
2018-09-14T14:42:52.569Z,40.84
2018-09-14T14:45:23.622Z,40.84
2018-09-14T14:47:54.706Z,41.21
2018-09-14T14:50:25.619Z,42.08
2018-09-14T14:52:56.733Z,41.70
2018-09-14T14:55:27.699Z,42.88
2018-09-14T14:57:58.602Z,41.81
2018-09-14T15:00:29.598Z,41.94
2018-09-14T15:03:00.713Z,42.33
2018-09-14T15:05:31.851Z,43.18
2018-09-14T15:08:03.025Z,43.12
2018-09-14T15:10:34.414Z,43.04
2018-09-14T15:13:05.527Z,42.83
2018-09-14T15:15:36.548Z,43.70
2018-09-14T15:18:07.554Z,43.90
2018-09-14T15:20:38.567Z,43.86
2018-09-14T15:23:09.505Z,44.45
2018-09-14T15:25:40.540Z,45.13
2018-09-14T15:28:11.497Z,45.15
2018-09-14T15:30:42.736Z,44.73
2018-09-14T15:33:13.681Z,44.39
2018-09-14T15:35:44.497Z,44.79
2018-09-14T15:38:15.489Z,44.43
2018-09-14T15:40:46.587Z,44.49
2018-09-14T15:43:17.502Z,44.32
2018-09-14T15:45:48.516Z,45.06
2018-09-14T15:48:19.480Z,45.31
2018-09-14T15:50:50.473Z,45.23
2018-09-14T15:53:21.469Z,44.86
2018-09-14T15:55:52.513Z,44.91
2018-09-14T15:58:23.562Z,44.57
2018-09-14T16:00:54.570Z,45.24
2018-09-14T16:03:25.486Z,45.48
2018-09-14T16:05:56.528Z,44.75
2018-09-14T16:08:27.543Z,45.45
2018-09-14T16:10:59.068Z,45.80
2018-09-14T16:13:30.769Z,44.86
2018-09-14T16:16:01.640Z,45.16
2018-09-14T16:18:32.555Z,45.38
2018-09-14T16:21:03.527Z,45.10
2018-09-14T16:23:34.540Z,44.80
2018-09-14T16:26:05.545Z,44.97
2018-09-14T16:28:36.537Z,45.45
2018-09-14T16:31:07.588Z,45.64
2018-09-14T16:33:38.772Z,45.32
2018-09-14T16:36:10.375Z,43.95
2018-09-14T16:38:41.988Z,44.67
2018-09-14T16:43:11.275Z,45.00
2018-09-14T16:45:41.381Z,45.11
2018-09-14T16:48:12.647Z,45.91
2018-09-14T16:50:43.625Z,46.50
2018-09-14T16:53:14.639Z,46.29
2018-09-14T16:55:45.544Z,46.46
2018-09-14T16:58:16.652Z,45.75
2018-09-14T17:00:47.503Z,46.90
2018-09-14T17:03:18.519Z,46.60
2018-09-14T17:05:49.533Z,46.60
2018-09-14T17:08:20.502Z,46.45
2018-09-14T17:10:51.603Z,46.27
2018-09-14T17:13:22.585Z,47.91
2018-09-14T17:15:53.501Z,47.42
2018-09-14T17:18:24.470Z,47.64
2018-09-14T17:20:55.488Z,47.51
2018-09-14T17:23:26.536Z,47.89
2018-09-14T17:25:57.537Z,48.70
2018-09-14T17:28:28.530Z,48.78
2018-09-14T17:30:59.642Z,47.31
2018-09-14T17:33:30.581Z,48.24
2018-09-14T17:36:01.578Z,49.76
2018-09-14T17:38:32.663Z,48.33
2018-09-14T17:41:03.616Z,48.75
2018-09-14T17:43:34.649Z,48.20
2018-09-14T17:46:05.695Z,47.83
2018-09-14T17:48:36.702Z,47.86
2018-09-14T17:51:07.577Z,48.73
2018-09-14T17:53:38.512Z,47.54
2018-09-14T17:56:09.516Z,48.01
2018-09-14T17:58:40.506Z,48.66
2018-09-14T18:01:11.497Z,49.18
2018-09-14T18:03:42.670Z,47.64
2018-09-14T18:06:14.010Z,47.92
2018-09-14T18:08:45.421Z,48.05
2018-09-14T18:11:16.514Z,48.93
2018-09-14T18:13:47.559Z,48.30
2018-09-14T18:16:18.523Z,48.72
2018-09-14T18:18:49.512Z,48.28
2018-09-14T18:21:20.530Z,48.15
2018-09-14T18:23:51.494Z,48.34
2018-09-14T18:26:22.544Z,48.08
2018-09-14T18:28:53.478Z,47.53
2018-09-14T18:31:24.629Z,48.22
2018-09-14T18:33:55.588Z,48.03
2018-09-14T18:36:31.853Z,48.99
2018-09-14T18:39:02.792Z,48.38
2018-09-14T18:41:34.757Z,48.50
2018-09-14T18:44:05.697Z,48.29
2018-09-14T18:46:36.757Z,48.73
2018-09-14T18:49:08.014Z,48.79
2018-09-14T18:51:39.377Z,48.17
2018-09-14T18:54:10.562Z,49.14
2018-09-14T18:56:41.469Z,48.36
2018-09-14T18:59:12.498Z,48.98
2018-09-14T19:01:44.184Z,48.38
2018-09-14T19:04:15.383Z,48.70
2018-09-14T19:06:46.539Z,48.17
2018-09-14T19:09:17.508Z,48.05
2018-09-14T19:14:32.628Z,48.36
2018-09-14T19:17:03.601Z,48.29
2018-09-14T19:19:34.661Z,48.07
2018-09-14T19:22:05.602Z,48.54
2018-09-14T19:24:37.214Z,48.39
2018-09-14T19:27:08.429Z,48.94
2018-09-14T19:29:39.599Z,48.97
2018-09-14T19:32:10.538Z,48.17
2018-09-14T19:34:41.502Z,49.06
2018-09-14T19:37:12.634Z,48.32
2018-09-14T19:39:43.559Z,49.55
2018-09-14T19:42:14.503Z,48.45
2018-09-14T19:44:45.706Z,49.17
2018-09-14T19:47:16.561Z,48.56
2018-09-14T19:49:47.606Z,49.24
2018-09-14T19:52:18.604Z,48.88
2018-09-14T19:54:49.517Z,49.23
2018-09-14T19:57:20.548Z,48.93
2018-09-14T19:59:51.531Z,49.78
2018-09-14T20:02:22.513Z,50.52
2018-09-14T20:04:53.521Z,49.38
2018-09-14T20:07:24.709Z,49.43
2018-09-14T20:09:55.780Z,50.11
2018-09-14T20:12:26.793Z,50.66
2018-09-14T20:14:58.015Z,50.08
2018-09-14T20:20:09.223Z,50.58
2018-09-14T20:22:40.777Z,50.58
2018-09-14T20:25:12.807Z,50.32
2018-09-14T20:27:43.657Z,49.77
2018-09-14T20:30:15.435Z,50.17
2018-09-14T20:32:46.553Z,50.98
2018-09-14T20:35:17.521Z,50.93
2018-09-14T20:37:49.206Z,50.49
2018-09-14T20:40:20.716Z,50.35
2018-09-14T20:42:51.776Z,51.43
2018-09-14T20:45:23.476Z,51.54
2018-09-14T20:47:54.631Z,51.13
2018-09-14T20:50:25.553Z,51.31
2018-09-14T20:52:57.493Z,51.50
2018-09-14T20:55:28.545Z,51.26
2018-09-14T20:57:59.709Z,51.23
2018-09-14T21:03:15.565Z,51.42
2018-09-14T21:05:46.558Z,51.72
2018-09-14T21:08:17.760Z,51.82
2018-09-14T21:10:48.589Z,52.10
2018-09-14T21:13:19.567Z,51.74
2018-09-14T21:15:50.498Z,52.84
2018-09-14T21:21:05.010Z,52.38
2018-09-14T21:23:36.389Z,53.22
2018-09-14T21:26:07.546Z,53.05
2018-09-14T21:28:38.680Z,52.82
2018-09-14T21:31:09.613Z,53.85
2018-09-14T21:33:40.755Z,54.16
2018-09-14T21:36:12.272Z,53.56
2018-09-14T21:38:42.692Z,53.28
2018-09-14T21:41:14.271Z,53.47
2018-09-14T21:43:44.679Z,53.03
2018-09-14T21:46:15.762Z,53.24
2018-09-14T21:48:46.845Z,52.11
2018-09-14T21:51:18.002Z,52.64
2018-09-14T21:53:49.381Z,52.91
2018-09-14T21:56:20.772Z,52.80
2018-09-14T21:58:51.654Z,52.88
2018-09-14T22:01:27.749Z,52.79
2018-09-14T22:04:00.560Z,53.65
2018-09-14T22:06:32.293Z,53.33
2018-09-14T22:11:47.691Z,53.74
2018-09-14T22:14:19.237Z,53.55
2018-09-14T22:16:50.501Z,53.97
2018-09-14T22:19:21.710Z,53.26
2018-09-14T22:24:34.689Z,53.27
2018-09-14T22:27:05.790Z,53.16
2018-09-14T22:29:37.604Z,52.42
2018-09-14T22:32:09.241Z,52.77
2018-09-14T22:34:40.594Z,52.62
2018-09-14T22:37:12.029Z,52.55
2018-09-14T22:39:43.560Z,51.93
2018-09-14T22:42:14.743Z,51.71
2018-09-14T22:44:46.033Z,52.33
2018-09-14T22:47:17.492Z,51.98
2018-09-14T22:49:48.580Z,52.24
2018-09-14T22:52:19.776Z,52.01
2018-09-14T22:54:51.211Z,52.13
2018-09-14T22:57:22.470Z,52.16
2018-09-14T22:59:53.629Z,51.87
2018-09-14T23:02:24.690Z,51.96
2018-09-14T23:04:55.802Z,51.46
2018-09-14T23:07:27.046Z,51.38
2018-09-14T23:09:58.501Z,51.28
2018-09-14T23:12:29.740Z,52.57
2018-09-14T23:15:01.380Z,51.44
2018-09-14T23:17:32.473Z,51.18
2018-09-14T23:20:03.801Z,51.39
2018-09-14T23:22:35.397Z,51.42
2018-09-14T23:25:06.734Z,51.24
2018-09-14T23:27:38.337Z,51.10
2018-09-14T23:30:09.646Z,51.29
2018-09-14T23:32:41.237Z,50.56
2018-09-14T23:35:12.652Z,50.43
2018-09-14T23:37:44.481Z,50.76
2018-09-14T23:40:15.718Z,50.60
2018-09-14T23:42:46.839Z,50.53
2018-09-14T23:45:17.778Z,50.92
2018-09-14T23:47:49.198Z,50.95
2018-09-14T23:50:20.539Z,50.53
2018-09-14T23:52:51.530Z,50.78
2018-09-14T23:55:22.496Z,50.62
2018-09-14T23:57:53.576Z,50.18
